createdAt,value
2019-04-20T00:01:46.978Z,59.60
2019-04-20T00:04:52.111Z,59.90
2019-04-20T00:08:00.491Z,60.20
2019-04-20T00:11:10.604Z,60.50
2019-04-20T00:14:16.141Z,60.50
2019-04-20T00:17:17.874Z,60.60
2019-04-20T00:20:29.029Z,61.00
2019-04-20T00:23:46.167Z,61.00
2019-04-20T00:27:15.809Z,61.20
2019-04-20T00:30:15.644Z,61.40
2019-04-20T00:33:14.827Z,61.00
2019-04-20T00:36:10.182Z,60.80
2019-04-20T00:39:17.195Z,60.60
2019-04-20T00:42:32.560Z,60.80
2019-04-20T00:45:30.566Z,61.10
2019-04-20T00:48:45.091Z,61.30
2019-04-20T00:52:05.257Z,61.40
2019-04-20T00:54:49.423Z,61.50
2019-04-20T00:57:59.702Z,61.70
2019-04-20T01:01:20.239Z,61.70
2019-04-20T01:04:26.972Z,61.80
2019-04-20T01:07:33.090Z,61.80
2019-04-20T01:10:39.491Z,62.70
2019-04-20T01:13:44.581Z,61.90
2019-04-20T01:16:51.279Z,62.10
2019-04-20T01:19:52.709Z,62.30
2019-04-20T01:23:02.008Z,62.30
2019-04-20T01:26:10.957Z,62.30
2019-04-20T01:29:23.726Z,62.30
2019-04-20T01:32:27.719Z,62.40
2019-04-20T01:35:47.932Z,62.20
2019-04-20T01:38:47.228Z,62.30
2019-04-20T01:41:39.347Z,62.50
2019-04-20T01:44:48.614Z,62.50
2019-04-20T01:47:54.429Z,62.70
2019-04-20T01:51:07.318Z,62.40
2019-04-20T01:54:21.248Z,62.30
2019-04-20T01:57:55.024Z,62.20
2019-04-20T02:00:51.544Z,61.90
2019-04-20T02:04:11.708Z,61.90
2019-04-20T02:07:13.676Z,61.50
2019-04-20T02:10:21.878Z,61.70
2019-04-20T02:13:33.094Z,61.40
2019-04-20T02:16:39.241Z,61.50
2019-04-20T02:20:00.980Z,61.30
2019-04-20T02:22:58.996Z,61.20
2019-04-20T02:25:54.183Z,61.20
2019-04-20T02:29:29.101Z,61.10
2019-04-20T02:42:28.225Z,61.10
2019-04-20T02:45:39.964Z,61.80
2019-04-20T02:48:31.663Z,61.90
2019-04-20T02:51:41.181Z,61.80
2019-04-20T02:54:50.860Z,60.80
2019-04-20T03:00:52.352Z,60.80
2019-04-20T03:03:42.749Z,60.90
2019-04-20T03:07:01.057Z,61.10
2019-04-20T03:10:05.532Z,61.20
2019-04-20T03:13:14.439Z,61.30
2019-04-20T03:16:20.979Z,61.30
2019-04-20T03:19:20.666Z,61.30
2019-04-20T03:22:51.308Z,61.70
2019-04-20T03:25:58.439Z,61.90
2019-04-20T03:29:12.819Z,61.90
2019-04-20T03:36:10.304Z,61.70
2019-04-20T03:39:02.129Z,62.90
2019-04-20T03:41:54.910Z,62.80
2019-04-20T03:45:03.618Z,62.90
2019-04-20T03:48:16.064Z,63.10
2019-04-20T03:51:34.320Z,63.10
2019-04-20T03:54:36.950Z,63.30
2019-04-20T03:58:10.787Z,63.40
2019-04-20T04:01:57.290Z,63.40
2019-04-20T04:04:56.235Z,63.50
2019-04-20T04:07:50.808Z,63.70
2019-04-20T04:11:08.500Z,63.60
2019-04-20T04:13:56.983Z,63.50
2019-04-20T04:17:03.022Z,62.80
2019-04-20T04:20:14.290Z,62.50
2019-04-20T04:23:35.653Z,62.30
2019-04-20T04:26:38.962Z,62.70
2019-04-20T04:29:46.804Z,62.90
2019-04-20T04:33:29.434Z,63.10
2019-04-20T04:35:56.861Z,63.20
2019-04-20T04:39:11.475Z,63.10
2019-04-20T04:42:34.222Z,63.00
2019-04-20T04:45:14.170Z,63.20
2019-04-20T04:48:22.120Z,62.80
2019-04-20T04:51:29.394Z,62.80
2019-04-20T04:54:40.980Z,63.00
2019-04-20T04:57:37.334Z,62.90
2019-04-20T05:00:42.680Z,63.00
2019-04-20T05:04:14.668Z,62.60
2019-04-20T05:07:08.821Z,62.70
2019-04-20T05:10:01.267Z,62.40
2019-04-20T05:13:07.152Z,62.20
2019-04-20T05:16:33.775Z,60.70
2019-04-20T05:19:41.654Z,60.50
2019-04-20T05:22:51.297Z,59.50
2019-04-20T05:26:27.182Z,58.60
2019-04-20T05:29:17.130Z,57.10
2019-04-20T05:32:28.759Z,55.80
2019-04-20T05:35:47.234Z,55.00
2019-04-20T05:38:57.254Z,54.60
2019-04-20T05:41:51.374Z,54.40
2019-04-20T05:45:02.913Z,54.50
2019-04-20T05:48:07.502Z,53.80
2019-04-20T05:51:28.430Z,52.30
2019-04-20T05:54:26.793Z,50.00
2019-04-20T05:57:35.065Z,47.80
2019-04-20T06:00:41.053Z,46.20
2019-04-20T06:03:42.547Z,43.50
2019-04-20T06:06:54.892Z,41.50
2019-04-20T06:10:09.387Z,39.80
2019-04-20T06:13:06.298Z,38.10
2019-04-20T06:16:46.992Z,36.70
2019-04-20T06:19:47.282Z,35.40
2019-04-20T06:23:09.488Z,33.50
2019-04-20T06:26:19.515Z,33.10
2019-04-20T06:29:07.303Z,31.00
2019-04-20T06:32:21.481Z,29.90
2019-04-20T06:35:46.107Z,28.90
2019-04-20T06:38:48.349Z,28.20
2019-04-20T06:41:56.755Z,27.30
2019-04-20T06:44:39.735Z,26.20
2019-04-20T06:47:52.007Z,25.60
2019-04-20T06:50:53.790Z,25.10
2019-04-20T06:54:08.163Z,24.30
2019-04-20T06:57:25.524Z,23.60
2019-04-20T07:00:23.000Z,22.90
2019-04-20T07:06:50.654Z,21.50
2019-04-20T07:12:53.288Z,19.40
2019-04-20T07:16:21.345Z,19.40
2019-04-20T07:19:31.655Z,18.30
2019-04-20T07:22:49.329Z,17.70
2019-04-20T07:26:00.067Z,17.00
2019-04-20T07:29:07.326Z,16.80
2019-04-20T07:32:01.484Z,16.20
2019-04-20T07:35:26.005Z,16.10
2019-04-20T07:38:36.864Z,15.30
2019-04-20T07:41:43.019Z,14.80
2019-04-20T07:44:53.189Z,14.40
2019-04-20T07:47:56.860Z,13.40
2019-04-20T07:50:49.811Z,14.00
2019-04-20T07:54:10.279Z,13.10
2019-04-20T07:57:11.501Z,12.80
2019-04-20T08:00:19.726Z,12.70
2019-04-20T08:06:32.063Z,12.20
2019-04-20T08:09:39.967Z,11.90
2019-04-20T08:13:00.553Z,11.80
2019-04-20T08:19:08.440Z,10.80
2019-04-20T08:22:23.060Z,10.40
2019-04-20T08:25:16.694Z,9.60
2019-04-20T08:28:36.009Z,8.20
2019-04-20T08:32:16.050Z,9.20
2019-04-20T08:35:22.755Z,8.30
2019-04-20T08:41:27.176Z,8.00
2019-04-20T08:47:56.625Z,8.10
2019-04-20T08:50:57.242Z,8.10
2019-04-20T08:54:03.389Z,8.80
2019-04-20T08:56:55.374Z,8.80
2019-04-20T09:00:00.659Z,8.50
2019-04-20T09:03:12.983Z,8.30
2019-04-20T09:06:26.283Z,8.00
2019-04-20T09:09:56.447Z,8.10
2019-04-20T09:12:40.554Z,8.10
2019-04-20T09:15:34.203Z,9.20
2019-04-20T09:18:51.478Z,9.10
2019-04-20T09:21:57.830Z,9.20
2019-04-20T09:25:37.606Z,9.30
2019-04-20T09:28:32.315Z,9.30
2019-04-20T09:31:43.632Z,10.60
2019-04-20T09:34:59.660Z,11.00
2019-04-20T09:38:06.128Z,12.20
2019-04-20T09:41:15.088Z,12.70
2019-04-20T09:44:04.648Z,14.20
2019-04-20T09:47:10.476Z,14.20
2019-04-20T09:50:37.025Z,15.10
2019-04-20T09:53:35.656Z,16.40
2019-04-20T09:56:46.359Z,16.80
2019-04-20T09:59:53.649Z,17.80
2019-04-20T10:02:44.672Z,18.00
2019-04-20T10:05:49.871Z,18.70
2019-04-20T10:08:58.312Z,18.80
2019-04-20T10:12:01.716Z,18.90
2019-04-20T10:15:14.063Z,19.10
2019-04-20T10:18:14.162Z,19.30
2019-04-20T10:21:20.098Z,19.80
2019-04-20T10:24:26.346Z,19.80
2019-04-20T10:27:32.743Z,20.10
2019-04-20T10:30:38.782Z,20.30
2019-04-20T10:33:45.972Z,20.20
2019-04-20T10:37:09.827Z,20.30
2019-04-20T10:40:30.711Z,19.60
2019-04-20T10:43:23.922Z,20.00
2019-04-20T10:46:29.523Z,20.20
2019-04-20T10:49:35.309Z,20.00
2019-04-20T10:52:41.536Z,20.10
2019-04-20T10:55:47.404Z,20.20
2019-04-20T10:58:53.776Z,20.60
2019-04-20T11:01:58.898Z,20.30
2019-04-20T11:05:04.509Z,20.40
2019-04-20T11:08:10.619Z,20.50
2019-04-20T11:11:23.169Z,20.50
2019-04-20T11:14:28.017Z,20.00
2019-04-20T11:17:30.555Z,20.30
2019-04-20T11:20:35.400Z,20.30
2019-04-20T11:23:40.490Z,19.60
2019-04-20T11:26:46.850Z,19.80
2019-04-20T11:29:51.978Z,20.00
2019-04-20T11:32:57.993Z,20.10
2019-04-20T11:36:03.204Z,19.90
2019-04-20T11:39:11.276Z,20.50
2019-04-20T11:42:17.414Z,19.90
2019-04-20T11:45:24.736Z,20.40
2019-04-20T11:48:31.607Z,20.30
2019-04-20T11:51:37.397Z,20.10
2019-04-20T11:54:42.537Z,20.00
2019-04-20T11:57:47.630Z,20.00
2019-04-20T12:01:01.470Z,20.20
2019-04-20T12:04:09.308Z,19.80
2019-04-20T12:07:07.012Z,19.70
2019-04-20T12:10:18.696Z,19.80
2019-04-20T12:13:18.821Z,20.10
2019-04-20T12:16:24.099Z,19.50
2019-04-20T12:19:29.426Z,19.30
2019-04-20T12:22:34.580Z,19.50
2019-04-20T12:25:41.099Z,18.90
2019-04-20T12:28:47.565Z,19.30
2019-04-20T12:31:55.416Z,19.60
2019-04-20T12:35:00.217Z,19.30
2019-04-20T12:38:05.342Z,19.50
2019-04-20T12:41:12.539Z,19.80
2019-04-20T12:44:17.557Z,20.00
2019-04-20T12:47:23.707Z,20.00
2019-04-20T12:50:29.840Z,19.90
2019-04-20T12:53:34.967Z,20.20
2019-04-20T12:56:40.437Z,20.30
2019-04-20T12:59:47.315Z,20.10
2019-04-20T13:02:53.680Z,20.10
2019-04-20T13:05:58.972Z,20.20
2019-04-20T13:09:08.287Z,20.40
2019-04-20T13:12:32.104Z,20.30
2019-04-20T13:15:58.364Z,20.40
2019-04-20T13:19:05.531Z,20.30
2019-04-20T13:22:10.983Z,20.70
2019-04-20T13:25:16.968Z,20.80
2019-04-20T13:28:23.161Z,20.60
2019-04-20T13:31:29.541Z,20.50
2019-04-20T13:34:36.092Z,21.30
2019-04-20T13:37:43.462Z,21.30
2019-04-20T13:40:48.872Z,21.30
2019-04-20T13:43:56.018Z,21.30
2019-04-20T13:47:00.874Z,21.20
2019-04-20T13:50:07.162Z,21.50
2019-04-20T13:53:12.336Z,21.00
2019-04-20T13:56:19.695Z,20.90
2019-04-20T13:59:39.602Z,21.30
2019-04-20T14:02:51.015Z,20.90
2019-04-20T14:05:56.506Z,20.90
2019-04-20T14:09:03.423Z,21.00
2019-04-20T14:12:19.827Z,21.30
2019-04-20T14:15:15.437Z,21.10
2019-04-20T14:18:20.651Z,21.10
2019-04-20T14:21:32.166Z,21.10
2019-04-20T14:24:37.517Z,21.50
2019-04-20T14:27:42.691Z,21.50
2019-04-20T14:30:47.896Z,21.10
2019-04-20T14:33:52.924Z,21.30
2019-04-20T14:37:00.099Z,21.50
2019-04-20T14:40:06.153Z,21.40
2019-04-20T14:43:11.346Z,20.90
2019-04-20T14:46:16.846Z,20.80
2019-04-20T14:49:22.961Z,20.90
2019-04-20T14:52:27.770Z,21.20
2019-04-20T14:55:33.424Z,21.40
2019-04-20T14:58:57.651Z,20.90
2019-04-20T15:02:12.704Z,21.00
2019-04-20T15:05:19.151Z,21.00
2019-04-20T15:08:24.843Z,20.60
2019-04-20T15:11:30.523Z,21.00
2019-04-20T15:14:36.749Z,21.00
2019-04-20T15:17:51.248Z,21.10
2019-04-20T15:20:59.459Z,21.30
2019-04-20T15:24:05.888Z,21.40
2019-04-20T15:27:12.150Z,21.70
2019-04-20T15:30:18.335Z,21.70
2019-04-20T15:33:23.464Z,21.60
2019-04-20T15:36:28.528Z,21.60
2019-04-20T15:39:34.816Z,21.30
2019-04-20T15:42:51.553Z,21.60
2019-04-20T15:45:47.910Z,21.10
2019-04-20T15:48:53.165Z,21.10
2019-04-20T15:51:59.622Z,21.50
2019-04-20T15:55:15.453Z,21.30
2019-04-20T15:58:12.316Z,21.70
2019-04-20T16:01:18.500Z,22.30
2019-04-20T16:04:43.462Z,22.10
2019-04-20T16:07:54.443Z,21.60
2019-04-20T16:10:55.195Z,21.70
2019-04-20T16:14:01.634Z,21.70
2019-04-20T16:17:09.269Z,21.70
2019-04-20T16:20:19.691Z,21.50
2019-04-20T16:23:22.665Z,21.50
2019-04-20T16:27:02.140Z,21.80
2019-04-20T16:30:09.486Z,22.40
2019-04-20T16:33:14.670Z,22.40
2019-04-20T16:36:20.630Z,22.60
2019-04-20T16:39:25.989Z,22.30
2019-04-20T16:42:32.144Z,22.50
2019-04-20T16:45:37.493Z,23.00
2019-04-20T16:48:42.344Z,23.00
2019-04-20T16:51:47.389Z,23.00
2019-04-20T16:54:53.557Z,23.10
2019-04-20T16:57:59.611Z,23.20
2019-04-20T17:01:05.617Z,23.30
2019-04-20T17:04:18.411Z,23.30
2019-04-20T17:07:24.903Z,23.60
2019-04-20T17:10:30.699Z,23.60
2019-04-20T17:13:43.432Z,23.60
2019-04-20T17:16:42.167Z,23.70
2019-04-20T17:19:47.141Z,23.80
2019-04-20T17:22:52.300Z,24.00
2019-04-20T17:25:57.895Z,24.30
2019-04-20T17:29:09.178Z,24.50
2019-04-20T17:32:21.389Z,24.50
2019-04-20T17:35:37.888Z,24.70
2019-04-20T17:38:39.881Z,25.00
2019-04-20T17:41:56.270Z,25.20
2019-04-20T17:44:56.323Z,25.30
2019-04-20T17:48:08.585Z,25.40
2019-04-20T17:51:23.530Z,25.60
2019-04-20T17:54:16.152Z,25.70
2019-04-20T17:57:21.596Z,25.80
2019-04-20T18:00:49.037Z,25.90
2019-04-20T18:04:18.636Z,26.10
2019-04-20T18:07:18.347Z,26.30
2019-04-20T18:10:22.613Z,26.50
2019-04-20T18:13:20.180Z,26.70
2019-04-20T18:16:45.308Z,26.70
2019-04-20T18:19:38.823Z,27.10
2019-04-20T18:22:50.443Z,27.40
2019-04-20T18:26:14.306Z,27.80
2019-04-20T18:29:16.537Z,28.00
2019-04-20T18:32:23.087Z,28.00
2019-04-20T18:35:33.916Z,28.30
2019-04-20T18:38:39.309Z,29.00
2019-04-20T18:41:48.037Z,29.50
2019-04-20T18:45:10.699Z,29.40
2019-04-20T18:48:11.852Z,29.70
2019-04-20T18:51:02.157Z,29.80
2019-04-20T18:54:14.702Z,30.10
2019-04-20T18:57:19.597Z,30.80
2019-04-20T19:00:28.742Z,31.40
2019-04-20T19:03:35.768Z,32.10
2019-04-20T19:06:36.052Z,32.50
2019-04-20T19:09:41.118Z,32.90
2019-04-20T19:12:58.887Z,33.40
2019-04-20T19:16:24.661Z,33.90
2019-04-20T19:19:38.702Z,34.00
2019-04-20T19:22:36.510Z,34.00
2019-04-20T19:25:43.785Z,34.60
2019-04-20T19:28:54.285Z,35.30
2019-04-20T19:32:11.543Z,35.60
2019-04-20T19:35:14.539Z,35.90
2019-04-20T19:38:17.012Z,36.10
2019-04-20T19:41:30.247Z,36.40
2019-04-20T19:44:39.515Z,36.60
2019-04-20T19:47:48.155Z,37.30
2019-04-20T19:50:59.032Z,37.60
2019-04-20T19:54:06.525Z,37.90
2019-04-20T19:57:04.916Z,38.40
2019-04-20T19:59:58.661Z,38.70
2019-04-20T20:03:05.764Z,38.70
2019-04-20T20:06:18.540Z,38.90
2019-04-20T20:09:18.297Z,38.60
2019-04-20T20:12:25.342Z,38.90
2019-04-20T20:15:34.333Z,39.40
2019-04-20T20:18:51.142Z,39.40
2019-04-20T20:22:00.174Z,39.70
2019-04-20T20:24:51.205Z,39.90
2019-04-20T20:28:11.960Z,39.80
2019-04-20T20:31:17.146Z,40.10
2019-04-20T20:34:22.100Z,40.30
2019-04-20T20:37:27.245Z,40.70
2019-04-20T20:40:30.992Z,40.80
2019-04-20T20:43:44.692Z,41.00
2019-04-20T20:46:52.150Z,41.30
2019-04-20T20:50:08.788Z,41.80
2019-04-20T20:53:06.353Z,41.30
2019-04-20T20:56:09.280Z,41.60
2019-04-20T20:59:11.509Z,41.90
2019-04-20T21:02:19.748Z,42.00
2019-04-20T21:05:19.669Z,42.30
2019-04-20T21:08:25.745Z,42.50
2019-04-20T21:11:34.295Z,42.60
2019-04-20T21:14:42.154Z,42.90
2019-04-20T21:18:10.147Z,43.10
2019-04-20T21:21:10.271Z,43.70
2019-04-20T21:24:11.041Z,43.30
2019-04-20T21:27:15.326Z,43.60
2019-04-20T21:30:25.244Z,43.70
2019-04-20T21:33:29.547Z,43.60
2019-04-20T21:36:33.088Z,43.80
2019-04-20T21:39:44.676Z,44.00
2019-04-20T21:42:52.448Z,44.50
2019-04-20T21:45:58.346Z,44.40
2019-04-20T21:49:09.672Z,44.60
2019-04-20T21:52:16.080Z,44.80
2019-04-20T21:55:12.193Z,44.90
2019-04-20T21:58:19.416Z,45.20
2019-04-20T22:01:32.356Z,46.00
2019-04-20T22:04:31.369Z,45.50
2019-04-20T22:07:36.848Z,45.60
2019-04-20T22:10:42.914Z,45.70
2019-04-20T22:13:49.525Z,45.80
2019-04-20T22:16:57.463Z,45.70
2019-04-20T22:20:14.423Z,45.80
2019-04-20T22:23:23.283Z,45.70
2019-04-20T22:26:25.395Z,45.90
2019-04-20T22:29:22.196Z,46.20
2019-04-20T22:32:28.134Z,46.30
2019-04-20T22:35:35.996Z,46.20
2019-04-20T22:39:05.872Z,46.20
2019-04-20T22:42:14.305Z,46.30
2019-04-20T22:45:19.207Z,46.70
2019-04-20T22:48:25.080Z,47.00
2019-04-20T22:51:43.598Z,47.30
2019-04-20T22:54:55.286Z,47.50
2019-04-20T22:57:57.425Z,47.40
2019-04-20T23:00:58.784Z,47.60
2019-04-20T23:03:59.020Z,48.10
2019-04-20T23:07:05.061Z,48.20
2019-04-20T23:10:11.238Z,48.50
2019-04-20T23:13:16.570Z,48.70
2019-04-20T23:16:22.884Z,48.90
2019-04-20T23:19:36.648Z,49.20
2019-04-20T23:22:40.358Z,49.40
2019-04-20T23:25:41.231Z,49.80
2019-04-20T23:28:50.835Z,49.90
2019-04-20T23:31:59.659Z,50.20
2019-04-20T23:35:05.906Z,50.30
2019-04-20T23:38:11.049Z,50.80
2019-04-20T23:41:13.540Z,50.90
2019-04-20T23:44:25.241Z,50.60
2019-04-20T23:47:45.678Z,51.40
2019-04-20T23:51:01.150Z,51.40
2019-04-20T23:54:04.694Z,51.50
2019-04-20T23:56:59.678Z,52.00
